sensor_id;sensor_type;location;lat;lon;timestamp;pressure;altitude;pressure_sealevel;temperature;humidity
7962;BME280;4026;43.652;24.906;2023-08-06T15:44:24;97881.00;;;27.61;72.24
7962;BME280;4026;43.652;24.906;2023-08-06T15:46:51;97884.16;;;27.63;71.66
7962;BME280;4026;43.652;24.906;2023-08-06T15:49:18;97887.72;;;27.47;70.79
7962;BME280;4026;43.652;24.906;2023-08-06T15:51:45;97884.53;;;27.45;70.44
7962;BME280;4026;43.652;24.906;2023-08-06T15:54:12;97882.91;;;27.39;70.68
7962;BME280;4026;43.652;24.906;2023-08-06T15:56:39;97886.97;;;27.24;71.55
7962;BME280;4026;43.652;24.906;2023-08-06T15:59:20;97881.84;;;27.35;75.44
7962;BME280;4026;43.652;24.906;2023-08-06T16:01:49;97878.59;;;27.27;74.30
7962;BME280;4026;43.652;24.906;2023-08-06T16:04:16;97880.66;;;27.25;73.94
7962;BME280;4026;43.652;24.906;2023-08-06T16:06:43;97888.25;;;27.22;71.89
7962;BME280;4026;43.652;24.906;2023-08-06T16:09:10;97888.56;;;27.03;72.25
7962;BME280;4026;43.652;24.906;2023-08-06T16:11:38;97884.38;;;27.02;74.38
7962;BME280;4026;43.652;24.906;2023-08-06T16:14:05;97889.78;;;26.96;74.76
7962;BME280;4026;43.652;24.906;2023-08-06T16:16:32;97895.72;;;26.86;74.31
7962;BME280;4026;43.652;24.906;2023-08-06T16:19:01;97893.25;;;26.74;76.30
7962;BME280;4026;43.652;24.906;2023-08-06T16:21:27;97903.00;;;26.57;75.73
7962;BME280;4026;43.652;24.906;2023-08-06T16:23:54;97907.59;;;26.50;75.69
7962;BME280;4026;43.652;24.906;2023-08-06T16:26:22;97907.56;;;26.28;75.71
7962;BME280;4026;43.652;24.906;2023-08-06T16:28:48;97909.53;;;26.20;76.56
7962;BME280;4026;43.652;24.906;2023-08-06T16:31:16;97910.69;;;26.08;77.64
7962;BME280;4026;43.652;24.906;2023-08-06T16:33:42;97911.63;;;26.02;78.39
7962;BME280;4026;43.652;24.906;2023-08-06T16:36:11;97914.19;;;25.96;79.46
7962;BME280;4026;43.652;24.906;2023-08-06T16:38:37;97922.38;;;25.83;78.81
7962;BME280;4026;43.652;24.906;2023-08-06T16:41:04;97919.16;;;25.81;79.66
7962;BME280;4026;43.652;24.906;2023-08-06T16:43:31;97918.44;;;25.69;80.65
7962;BME280;4026;43.652;24.906;2023-08-06T16:45:58;97925.72;;;25.67;81.68
7962;BME280;4026;43.652;24.906;2023-08-06T16:48:25;97923.91;;;25.67;82.72
7962;BME280;4026;43.652;24.906;2023-08-06T16:50:53;97925.72;;;25.67;82.70
7962;BME280;4026;43.652;24.906;2023-08-06T16:53:22;97925.06;;;25.60;84.82
7962;BME280;4026;43.652;24.906;2023-08-06T16:55:49;97927.69;;;25.60;84.69
7962;BME280;4026;43.652;24.906;2023-08-06T16:58:16;97929.69;;;25.52;84.70
7962;BME280;4026;43.652;24.906;2023-08-06T17:00:44;97931.72;;;25.50;86.32
7962;BME280;4026;43.652;24.906;2023-08-06T17:03:11;97928.16;;;25.57;87.85
7962;BME280;4026;43.652;24.906;2023-08-06T17:05:38;97932.66;;;25.44;87.44
7962;BME280;4026;43.652;24.906;2023-08-06T17:08:05;97932.81;;;25.38;88.00
7962;BME280;4026;43.652;24.906;2023-08-06T17:10:35;97935.13;;;25.34;89.70
7962;BME280;4026;43.652;24.906;2023-08-06T17:13:04;97930.72;;;25.23;91.28
7962;BME280;4026;43.652;24.906;2023-08-06T17:15:31;97934.31;;;24.93;89.83
7962;BME280;4026;43.652;24.906;2023-08-06T17:17:58;97934.88;;;24.95;91.53
7962;BME280;4026;43.652;24.906;2023-08-06T17:20:25;97933.50;;;24.93;92.25
7962;BME280;4026;43.652;24.906;2023-08-06T17:22:52;97925.00;;;24.85;92.17
7962;BME280;4026;43.652;24.906;2023-08-06T17:25:19;97933.00;;;24.79;93.23
7962;BME280;4026;43.652;24.906;2023-08-06T17:27:49;97934.47;;;24.75;93.22
7962;BME280;4026;43.652;24.906;2023-08-06T17:30:16;97927.78;;;24.67;93.96
7962;BME280;4026;43.652;24.906;2023-08-06T17:32:44;97930.50;;;24.60;95.22
7962;BME280;4026;43.652;24.906;2023-08-06T17:35:11;97934.97;;;24.48;95.68
7962;BME280;4026;43.652;24.906;2023-08-06T17:37:38;97949.06;;;24.47;95.99
7962;BME280;4026;43.652;24.906;2023-08-06T17:40:06;97945.41;;;24.48;97.06
7962;BME280;4026;43.652;24.906;2023-08-06T17:42:33;97947.13;;;24.43;97.92
7962;BME280;4026;43.652;24.906;2023-08-06T17:45:02;97941.97;;;24.36;98.17
7962;BME280;4026;43.652;24.906;2023-08-06T17:47:29;97946.50;;;24.29;98.84
7962;BME280;4026;43.652;24.906;2023-08-06T17:49:56;97955.84;;;24.25;99.42
7962;BME280;4026;43.652;24.906;2023-08-06T17:52:23;97954.34;;;24.17;99.67
7962;BME280;4026;43.652;24.906;2023-08-06T17:54:50;97951.84;;;24.10;100.00
7962;BME280;4026;43.652;24.906;2023-08-06T17:57:17;97955.81;;;24.01;100.00
7962;BME280;4026;43.652;24.906;2023-08-06T17:59:44;97961.34;;;23.93;100.00
7962;BME280;4026;43.652;24.906;2023-08-06T18:02:12;97975.31;;;23.87;100.00
7962;BME280;4026;43.652;24.906;2023-08-06T18:04:39;97965.31;;;23.84;100.00
7962;BME280;4026;43.652;24.906;2023-08-06T18:07:06;97966.91;;;23.85;100.00
7962;BME280;4026;43.652;24.906;2023-08-06T18:09:32;97969.84;;;23.77;100.00
7962;BME280;4026;43.652;24.906;2023-08-06T18:11:59;97962.75;;;23.65;100.00
7962;BME280;4026;43.652;24.906;2023-08-06T18:14:26;97963.50;;;23.54;100.00
7962;BME280;4026;43.652;24.906;2023-08-06T18:16:53;97972.66;;;23.45;100.00
7962;BME280;4026;43.652;24.906;2023-08-06T18:19:21;97971.00;;;23.32;100.00
7962;BME280;4026;43.652;24.906;2023-08-06T18:21:48;97984.13;;;23.25;100.00
7962;BME280;4026;43.652;24.906;2023-08-06T18:24:15;97991.81;;;23.20;100.00
7962;BME280;4026;43.652;24.906;2023-08-06T18:26:42;97998.44;;;23.04;100.00
7962;BME280;4026;43.652;24.906;2023-08-06T18:29:09;98004.53;;;22.92;100.00
7962;BME280;4026;43.652;24.906;2023-08-06T18:31:36;98003.97;;;22.90;100.00
7962;BME280;4026;43.652;24.906;2023-08-06T18:34:03;98018.44;;;22.86;100.00
7962;BME280;4026;43.652;24.906;2023-08-06T18:36:32;98024.31;;;22.81;100.00
7962;BME280;4026;43.652;24.906;2023-08-06T18:38:59;98024.00;;;22.71;100.00
7962;BME280;4026;43.652;24.906;2023-08-06T18:41:26;98035.28;;;22.65;100.00
7962;BME280;4026;43.652;24.906;2023-08-06T18:43:52;98034.13;;;22.60;100.00
7962;BME280;4026;43.652;24.906;2023-08-06T18:46:19;98037.25;;;22.69;100.00
7962;BME280;4026;43.652;24.906;2023-08-06T18:48:46;98051.28;;;22.68;100.00
7962;BME280;4026;43.652;24.906;2023-08-06T18:51:13;98054.13;;;22.60;100.00
7962;BME280;4026;43.652;24.906;2023-08-06T18:53:42;98059.31;;;22.67;100.00
7962;BME280;4026;43.652;24.906;2023-08-06T18:56:09;98066.09;;;22.68;100.00
7962;BME280;4026;43.652;24.906;2023-08-06T18:58:36;98067.81;;;22.55;100.00
7962;BME280;4026;43.652;24.906;2023-08-06T19:01:03;98068.63;;;22.56;100.00
7962;BME280;4026;43.652;24.906;2023-08-06T19:03:29;98065.41;;;22.54;100.00
7962;BME280;4026;43.652;24.906;2023-08-06T19:05:58;98063.03;;;22.52;100.00
7962;BME280;4026;43.652;24.906;2023-08-06T19:08:26;98071.59;;;22.59;100.00
7962;BME280;4026;43.652;24.906;2023-08-06T19:10:54;98079.41;;;22.59;100.00
7962;BME280;4026;43.652;24.906;2023-08-06T19:13:21;98077.69;;;22.47;100.00
7962;BME280;4026;43.652;24.906;2023-08-06T19:15:48;98081.19;;;22.34;100.00
7962;BME280;4026;43.652;24.906;2023-08-06T19:18:15;98078.56;;;22.34;100.00
7962;BME280;4026;43.652;24.906;2023-08-06T19:20:42;98082.69;;;22.23;100.00
7962;BME280;4026;43.652;24.906;2023-08-06T19:23:09;98090.91;;;22.13;100.00
7962;BME280;4026;43.652;24.906;2023-08-06T19:25:41;98094.16;;;22.09;98.27
7962;BME280;4026;43.652;24.906;2023-08-06T19:28:10;98100.63;;;22.00;97.82
7962;BME280;4026;43.652;24.906;2023-08-06T19:30:37;98106.19;;;22.03;98.47
7962;BME280;4026;43.652;24.906;2023-08-06T19:33:06;98116.22;;;22.00;98.11
7962;BME280;4026;43.652;24.906;2023-08-06T19:35:34;98113.47;;;21.88;98.66
7962;BME280;4026;43.652;24.906;2023-08-06T19:38:00;98125.94;;;21.79;99.33
7962;BME280;4026;43.652;24.906;2023-08-06T19:40:27;98123.13;;;21.74;100.00
7962;BME280;4026;43.652;24.906;2023-08-06T19:42:54;98124.94;;;21.67;100.00
7962;BME280;4026;43.652;24.906;2023-08-06T19:45:22;98130.78;;;21.62;100.00
7962;BME280;4026;43.652;24.906;2023-08-06T19:47:49;98134.19;;;21.63;100.00
7962;BME280;4026;43.652;24.906;2023-08-06T19:50:16;98132.59;;;21.62;100.00
7962;BME280;4026;43.652;24.906;2023-08-06T19:52:43;98135.19;;;21.62;100.00
7962;BME280;4026;43.652;24.906;2023-08-06T19:55:11;98133.16;;;21.64;100.00
7962;BME280;4026;43.652;24.906;2023-08-06T19:57:37;98137.59;;;21.57;100.00
7962;BME280;4026;43.652;24.906;2023-08-06T20:00:05;98140.22;;;21.57;100.00
7962;BME280;4026;43.652;24.906;2023-08-06T20:02:34;98150.00;;;21.61;100.00
7962;BME280;4026;43.652;24.906;2023-08-06T20:05:01;98156.00;;;21.55;100.00
7962;BME280;4026;43.652;24.906;2023-08-06T20:07:29;98156.03;;;21.48;100.00
7962;BME280;4026;43.652;24.906;2023-08-06T20:09:56;98154.44;;;21.41;100.00
7962;BME280;4026;43.652;24.906;2023-08-06T20:12:23;98160.47;;;21.41;100.00
7962;BME280;4026;43.652;24.906;2023-08-06T20:14:50;98154.03;;;21.37;100.00
7962;BME280;4026;43.652;24.906;2023-08-06T20:17:16;98150.66;;;21.37;100.00
7962;BME280;4026;43.652;24.906;2023-08-06T20:19:45;98151.66;;;21.42;100.00
7962;BME280;4026;43.652;24.906;2023-08-06T20:22:11;98161.25;;;21.35;100.00
7962;BME280;4026;43.652;24.906;2023-08-06T20:24:38;98165.03;;;21.26;100.00
7962;BME280;4026;43.652;24.906;2023-08-06T20:27:06;98162.84;;;21.23;100.00
7962;BME280;4026;43.652;24.906;2023-08-06T20:29:33;98165.25;;;21.18;100.00
7962;BME280;4026;43.652;24.906;2023-08-06T20:32:00;98166.84;;;21.19;100.00
7962;BME280;4026;43.652;24.906;2023-08-06T20:34:27;98160.47;;;21.15;100.00
7962;BME280;4026;43.652;24.906;2023-08-06T20:36:55;98160.47;;;21.15;100.00
7962;BME280;4026;43.652;24.906;2023-08-06T20:39:23;98155.25;;;21.01;100.00
7962;BME280;4026;43.652;24.906;2023-08-06T20:41:50;98157.66;;;21.10;100.00
7962;BME280;4026;43.652;24.906;2023-08-06T20:44:17;98158.84;;;21.14;100.00
7962;BME280;4026;43.652;24.906;2023-08-06T20:46:44;98169.66;;;21.11;100.00
7962;BME280;4026;43.652;24.906;2023-08-06T20:49:11;98168.84;;;21.10;100.00
7962;BME280;4026;43.652;24.906;2023-08-06T20:51:38;98184.47;;;21.03;100.00
7962;BME280;4026;43.652;24.906;2023-08-06T20:54:06;98184.63;;;21.09;100.00
7962;BME280;4026;43.652;24.906;2023-08-06T20:56:33;98183.25;;;20.99;100.00
7962;BME280;4026;43.652;24.906;2023-08-06T20:58:59;98182.44;;;21.06;100.00
7962;BME280;4026;43.652;24.906;2023-08-06T21:01:26;98193.25;;;21.09;100.00
7962;BME280;4026;43.652;24.906;2023-08-06T21:03:53;98201.25;;;21.01;100.00
7962;BME280;4026;43.652;24.906;2023-08-06T21:06:20;98201.25;;;21.01;100.00
7962;BME280;4026;43.652;24.906;2023-08-06T21:08:47;98197.47;;;21.03;100.00
7962;BME280;4026;43.652;24.906;2023-08-06T21:11:15;98198.84;;;21.13;100.00
7962;BME280;4026;43.652;24.906;2023-08-06T21:13:42;98208.03;;;20.95;100.00
7962;BME280;4026;43.652;24.906;2023-08-06T21:16:09;98208.22;;;20.94;100.00
7962;BME280;4026;43.652;24.906;2023-08-06T21:18:36;98214.63;;;20.91;100.00
7962;BME280;4026;43.652;24.906;2023-08-06T21:21:04;98213.44;;;20.80;100.00
7962;BME280;4026;43.652;24.906;2023-08-06T21:23:31;98222.19;;;20.73;100.00
7962;BME280;4026;43.652;24.906;2023-08-06T21:25:59;98229.19;;;20.66;100.00
7962;BME280;4026;43.652;24.906;2023-08-06T21:28:29;98241.16;;;20.67;100.00
7962;BME280;4026;43.652;24.906;2023-08-06T21:30:56;98241.94;;;20.61;100.00
7962;BME280;4026;43.652;24.906;2023-08-06T21:33:24;98234.97;;;20.68;100.00
7962;BME280;4026;43.652;24.906;2023-08-06T21:35:51;98249.56;;;20.69;100.00
7962;BME280;4026;43.652;24.906;2023-08-06T21:38:18;98246.34;;;20.60;100.00
7962;BME280;4026;43.652;24.906;2023-08-06T21:40:45;98245.50;;;20.53;100.00
7962;BME280;4026;43.652;24.906;2023-08-06T21:43:12;98250.84;;;20.45;100.00
7962;BME280;4026;43.652;24.906;2023-08-06T21:45:40;98264.44;;;20.40;100.00
7962;BME280;4026;43.652;24.906;2023-08-06T21:48:07;98250.22;;;20.36;100.00
7962;BME280;4026;43.652;24.906;2023-08-06T21:50:34;98264.19;;;20.35;100.00
7962;BME280;4026;43.652;24.906;2023-08-06T21:53:01;98251.84;;;20.37;100.00
7962;BME280;4026;43.652;24.906;2023-08-06T21:55:29;98258.00;;;20.36;100.00
7962;BME280;4026;43.652;24.906;2023-08-06T21:57:57;98259.00;;;20.28;100.00
7962;BME280;4026;43.652;24.906;2023-08-06T22:00:24;98249.41;;;20.29;100.00
7962;BME280;4026;43.652;24.906;2023-08-06T22:02:52;98257.31;;;20.14;100.00
7962;BME280;4026;43.652;24.906;2023-08-06T22:05:19;98265.66;;;20.03;100.00
7962;BME280;4026;43.652;24.906;2023-08-06T22:07:46;98267.22;;;19.97;100.00
7962;BME280;4026;43.652;24.906;2023-08-06T22:10:13;98265.94;;;19.86;100.00
7962;BME280;4026;43.652;24.906;2023-08-06T22:12:40;98267.50;;;19.81;100.00
7962;BME280;4026;43.652;24.906;2023-08-06T22:15:07;98277.88;;;19.81;100.00
7962;BME280;4026;43.652;24.906;2023-08-06T22:17:34;98286.59;;;19.66;100.00
7962;BME280;4026;43.652;24.906;2023-08-06T22:20:03;98299.44;;;19.60;100.00
7962;BME280;4026;43.652;24.906;2023-08-06T22:22:30;98297.19;;;19.50;100.00
7962;BME280;4026;43.652;24.906;2023-08-06T22:24:58;98294.72;;;19.42;100.00
7962;BME280;4026;43.652;24.906;2023-08-06T22:27:25;98290.72;;;19.39;100.00
7962;BME280;4026;43.652;24.906;2023-08-06T22:29:51;98293.88;;;19.35;100.00
7962;BME280;4026;43.652;24.906;2023-08-06T22:32:18;98292.25;;;19.34;100.00
7962;BME280;4026;43.652;24.906;2023-08-06T22:34:45;98290.78;;;19.25;100.00
7962;BME280;4026;43.652;24.906;2023-08-06T22:37:13;98290.53;;;19.19;100.00
7962;BME280;4026;43.652;24.906;2023-08-06T22:39:40;98300.06;;;19.12;100.00
7962;BME280;4026;43.652;24.906;2023-08-06T22:42:07;98301.84;;;19.12;100.00
7962;BME280;4026;43.652;24.906;2023-08-06T22:44:34;98312.00;;;19.13;100.00
7962;BME280;4026;43.652;24.906;2023-08-06T22:47:00;98311.59;;;19.10;100.00
7962;BME280;4026;43.652;24.906;2023-08-06T22:49:27;98313.00;;;19.12;100.00
7962;BME280;4026;43.652;24.906;2023-08-06T22:51:54;98303.13;;;19.01;100.00
7962;BME280;4026;43.652;24.906;2023-08-06T22:54:22;98306.34;;;19.03;100.00
7962;BME280;4026;43.652;24.906;2023-08-06T22:56:49;98305.34;;;19.04;100.00
7962;BME280;4026;43.652;24.906;2023-08-06T22:59:16;98296.34;;;19.00;100.00
7962;BME280;4026;43.652;24.906;2023-08-06T23:01:43;98299.53;;;19.02;100.00
7962;BME280;4026;43.652;24.906;2023-08-06T23:04:10;98305.09;;;18.99;100.00
7962;BME280;4026;43.652;24.906;2023-08-06T23:06:37;98310.28;;;18.99;100.00
7962;BME280;4026;43.652;24.906;2023-08-06T23:09:04;98312.50;;;19.02;100.00
7962;BME280;4026;43.652;24.906;2023-08-06T23:11:32;98324.38;;;18.96;100.00
7962;BME280;4026;43.652;24.906;2023-08-06T23:13:59;98323.91;;;18.86;100.00
7962;BME280;4026;43.652;24.906;2023-08-06T23:16:26;98324.78;;;18.78;100.00
7962;BME280;4026;43.652;24.906;2023-08-06T23:18:53;98323.19;;;18.77;100.00
7962;BME280;4026;43.652;24.906;2023-08-06T23:21:20;98330.78;;;18.79;100.00
7962;BME280;4026;43.652;24.906;2023-08-06T23:23:48;98321.41;;;18.78;100.00
7962;BME280;4026;43.652;24.906;2023-08-06T23:26:15;98325.16;;;18.75;100.00
7962;BME280;4026;43.652;24.906;2023-08-06T23:28:44;98339.81;;;18.68;100.00
7962;BME280;4026;43.652;24.906;2023-08-06T23:31:11;98337.50;;;18.73;100.00
7962;BME280;4026;43.652;24.906;2023-08-06T23:33:38;98341.41;;;18.69;100.00
7962;BME280;4026;43.652;24.906;2023-08-06T23:36:05;98335.06;;;18.57;100.00
7962;BME280;4026;43.652;24.906;2023-08-06T23:38:31;98339.91;;;18.60;100.00
7962;BME280;4026;43.652;24.906;2023-08-06T23:40:58;98346.31;;;18.49;100.00
7962;BME280;4026;43.652;24.906;2023-08-06T23:43:25;98348.66;;;18.44;100.00
7962;BME280;4026;43.652;24.906;2023-08-06T23:45:53;98347.41;;;18.40;100.00
7962;BME280;4026;43.652;24.906;2023-08-06T23:48:21;98347.31;;;18.33;100.00
7962;BME280;4026;43.652;24.906;2023-08-06T23:50:48;98349.63;;;18.28;100.00
7962;BME280;4026;43.652;24.906;2023-08-06T23:53:15;98347.25;;;18.27;100.00
7962;BME280;4026;43.652;24.906;2023-08-06T23:55:42;98342.31;;;18.17;100.00
7962;BME280;4026;43.652;24.906;2023-08-06T23:58:09;98340.34;;;18.19;100.00
